This is the latest recevied weather packets stored in our database for station/object F8KHU-13. If no packets are shown the sender has not sent any weather packets the latest 1 day(s).
| Time | Temp. | Humidity | Pressure | Rain* | Wind** | Luminosity | Snow |
|---|---|---|---|---|---|---|---|
| 1778103636 | 11.11° C | 31% | 1014.2 hPa | 0 mm | - | 0 W/m² | - |
| 1778103616 | 11.11° C | 31% | 1014.1 hPa | 0 mm | - | 0 W/m² | - |
| 1778103596 | 11.11° C | 31% | 1014.1 hPa | 0 mm | - | 0 W/m² | - |
| 1778098237 | 11.67° C | 32% | 1013.4 hPa | 0 mm | - | 0 W/m² | - |
| 1778098217 | 11.67° C | 32% | 1013.3 hPa | 0 mm | - | 0 W/m² | - |
| 1778098197 | 11.67° C | 32% | 1013.4 hPa | 0 mm | - | 0 W/m² | - |
| 1778097297 | 11.67° C | 32% | 1013.2 hPa | 0 mm | - | 0 W/m² | - |
| 1778096417 | 12.22° C | 31% | 1013.1 hPa | 0 mm | - | 0 W/m² | - |
| 1778096397 | 12.22° C | 31% | 1013.1 hPa | 0 mm | - | 0 W/m² | - |
| 1778091038 | 12.78° C | 31% | 1012.2 hPa | 0 mm | - | 0 W/m² | - |
| 1778091018 | 12.78° C | 31% | 1012.3 hPa | 0 mm | - | 0 W/m² | - |
| 1778090998 | 12.78° C | 31% | 1012.2 hPa | 0 mm | - | 0 W/m² | - |
| 1778090138 | 12.78° C | 31% | 1012.1 hPa | 0 mm | - | 0 W/m² | - |
| 1778090118 | 12.78° C | 31% | 1012.1 hPa | 0 mm | - | 0 W/m² | - |
| 1778089238 | 13.33° C | 30% | 1011.9 hPa | 0 mm | - | 0 W/m² | - |
| 1778089218 | 13.33° C | 30% | 1012 hPa | 0 mm | - | 0 W/m² | - |
| 1778084734 | 13.89° C | 30% | 1011.5 hPa | 0 mm | - | 0 W/m² | - |
| 1778084694 | 13.89° C | 30% | 1011.3 hPa | 0 mm | - | 0 W/m² | - |
| 1778083814 | 13.33° C | 30% | 1011.4 hPa | 0 mm | - | 0 W/m² | - |
| 1778083794 | 13.33° C | 30% | 1011.5 hPa | 0 mm | - | 0 W/m² | - |
| 1778082034 | 13.33° C | 30% | 1011.4 hPa | 0 mm | - | 0 W/m² | - |
| 1778082014 | 13.33° C | 30% | 1011.4 hPa | 0 mm | - | 0 W/m² | - |
| 1778079335 | 14.44° C | 30% | 1011.4 hPa | 0 mm | - | 0 W/m² | - |
| 1778078466 | 14.44° C | 30% | 1011.4 hPa | 0 mm | - | 0 W/m² | - |
| 1778078435 | 14.44° C | 30% | 1011.4 hPa | 0 mm | - | 0 W/m² | - |
* Rain latest hour (hover to see other rain measurements)
** Current wind speed in m/s (hover to see current wind gust speed)